sensor_id;sensor_type;location;lat;lon;timestamp;temperature;humidity
14741;DHT22;7462;53.530;9.414;2023-05-19T00:01:56;8.80;99.90
14741;DHT22;7462;53.530;9.414;2023-05-19T00:04:26;8.80;99.90
14741;DHT22;7462;53.530;9.414;2023-05-19T00:06:56;8.80;99.90
14741;DHT22;7462;53.530;9.414;2023-05-19T00:09:26;8.70;99.90
14741;DHT22;7462;53.530;9.414;2023-05-19T00:11:55;8.70;99.90
14741;DHT22;7462;53.530;9.414;2023-05-19T00:14:23;8.70;99.90
14741;DHT22;7462;53.530;9.414;2023-05-19T00:16:52;8.70;99.90
14741;DHT22;7462;53.530;9.414;2023-05-19T00:19:23;8.60;99.90
14741;DHT22;7462;53.530;9.414;2023-05-19T00:21:52;8.60;99.90
14741;DHT22;7462;53.530;9.414;2023-05-19T00:24:20;8.50;99.90
14741;DHT22;7462;53.530;9.414;2023-05-19T00:26:48;8.50;99.90
14741;DHT22;7462;53.530;9.414;2023-05-19T00:29:16;8.50;99.90
14741;DHT22;7462;53.530;9.414;2023-05-19T00:31:45;8.40;99.90
14741;DHT22;7462;53.530;9.414;2023-05-19T00:34:13;8.40;99.90
14741;DHT22;7462;53.530;9.414;2023-05-19T00:36:42;8.40;99.90
14741;DHT22;7462;53.530;9.414;2023-05-19T00:39:13;8.40;99.90
14741;DHT22;7462;53.530;9.414;2023-05-19T00:41:41;8.40;99.90
14741;DHT22;7462;53.530;9.414;2023-05-19T00:44:09;8.40;99.90
14741;DHT22;7462;53.530;9.414;2023-05-19T00:46:37;8.30;99.90
14741;DHT22;7462;53.530;9.414;2023-05-19T00:49:05;8.30;99.90
14741;DHT22;7462;53.530;9.414;2023-05-19T00:51:33;8.30;99.90
14741;DHT22;7462;53.530;9.414;2023-05-19T00:54:04;8.30;99.90
14741;DHT22;7462;53.530;9.414;2023-05-19T00:56:32;8.20;99.90
14741;DHT22;7462;53.530;9.414;2023-05-19T00:59:00;8.20;99.90
14741;DHT22;7462;53.530;9.414;2023-05-19T01:01:29;8.20;99.90
14741;DHT22;7462;53.530;9.414;2023-05-19T01:03:58;8.20;99.90
14741;DHT22;7462;53.530;9.414;2023-05-19T01:06:26;8.20;99.90
14741;DHT22;7462;53.530;9.414;2023-05-19T01:08:55;8.20;99.90
14741;DHT22;7462;53.530;9.414;2023-05-19T01:11:25;8.20;99.90
14741;DHT22;7462;53.530;9.414;2023-05-19T01:13:53;8.10;99.90
14741;DHT22;7462;53.530;9.414;2023-05-19T01:16:26;8.10;99.90
14741;DHT22;7462;53.530;9.414;2023-05-19T01:19:00;8.10;99.90
14741;DHT22;7462;53.530;9.414;2023-05-19T01:21:49;8.10;99.90
14741;DHT22;7462;53.530;9.414;2023-05-19T01:24:33;8.00;99.90
14741;DHT22;7462;53.530;9.414;2023-05-19T01:27:22;8.00;99.90
14741;DHT22;7462;53.530;9.414;2023-05-19T01:30:19;7.90;99.90
14741;DHT22;7462;53.530;9.414;2023-05-19T01:32:53;7.90;99.90
14741;DHT22;7462;53.530;9.414;2023-05-19T01:35:24;7.90;99.90
14741;DHT22;7462;53.530;9.414;2023-05-19T01:37:55;7.90;99.90
14741;DHT22;7462;53.530;9.414;2023-05-19T01:40:24;7.80;99.90
14741;DHT22;7462;53.530;9.414;2023-05-19T01:42:55;7.80;99.90
14741;DHT22;7462;53.530;9.414;2023-05-19T01:45:27;7.80;99.90
14741;DHT22;7462;53.530;9.414;2023-05-19T01:47:58;7.80;99.90
14741;DHT22;7462;53.530;9.414;2023-05-19T01:50:27;7.70;99.90
14741;DHT22;7462;53.530;9.414;2023-05-19T01:52:56;7.70;99.90
14741;DHT22;7462;53.530;9.414;2023-05-19T01:55:24;7.70;99.90
14741;DHT22;7462;53.530;9.414;2023-05-19T01:58:01;7.60;99.90
14741;DHT22;7462;53.530;9.414;2023-05-19T02:00:39;7.70;99.90
14741;DHT22;7462;53.530;9.414;2023-05-19T02:03:17;7.60;99.90
14741;DHT22;7462;53.530;9.414;2023-05-19T02:05:57;7.60;99.90
14741;DHT22;7462;53.530;9.414;2023-05-19T02:08:29;7.70;99.90
14741;DHT22;7462;53.530;9.414;2023-05-19T02:11:02;7.60;99.90
14741;DHT22;7462;53.530;9.414;2023-05-19T02:13:35;7.60;99.90
14741;DHT22;7462;53.530;9.414;2023-05-19T02:16:06;7.60;99.90
14741;DHT22;7462;53.530;9.414;2023-05-19T02:18:35;7.50;99.90
14741;DHT22;7462;53.530;9.414;2023-05-19T02:21:03;7.50;99.90
14741;DHT22;7462;53.530;9.414;2023-05-19T02:23:31;7.50;99.90
14741;DHT22;7462;53.530;9.414;2023-05-19T02:25:59;7.50;99.90
14741;DHT22;7462;53.530;9.414;2023-05-19T02:28:27;7.50;99.90
14741;DHT22;7462;53.530;9.414;2023-05-19T02:30:57;7.50;99.90
14741;DHT22;7462;53.530;9.414;2023-05-19T02:33:28;7.40;99.90
14741;DHT22;7462;53.530;9.414;2023-05-19T02:35:57;7.50;99.90
14741;DHT22;7462;53.530;9.414;2023-05-19T02:38:25;7.40;99.90
14741;DHT22;7462;53.530;9.414;2023-05-19T02:40:53;7.40;99.90
14741;DHT22;7462;53.530;9.414;2023-05-19T02:43:22;7.40;99.90
14741;DHT22;7462;53.530;9.414;2023-05-19T02:45:50;7.40;99.90
14741;DHT22;7462;53.530;9.414;2023-05-19T02:48:19;7.40;99.90
14741;DHT22;7462;53.530;9.414;2023-05-19T02:50:48;7.40;99.90
14741;DHT22;7462;53.530;9.414;2023-05-19T02:53:16;7.40;99.90
14741;DHT22;7462;53.530;9.414;2023-05-19T02:55:44;7.40;99.90
14741;DHT22;7462;53.530;9.414;2023-05-19T02:58:12;7.30;99.90
14741;DHT22;7462;53.530;9.414;2023-05-19T03:00:40;7.30;99.90
14741;DHT22;7462;53.530;9.414;2023-05-19T03:03:10;7.30;99.90
14741;DHT22;7462;53.530;9.414;2023-05-19T03:05:38;7.30;99.90
14741;DHT22;7462;53.530;9.414;2023-05-19T03:08:07;7.30;99.90
14741;DHT22;7462;53.530;9.414;2023-05-19T03:10:35;7.30;99.90
14741;DHT22;7462;53.530;9.414;2023-05-19T03:13:03;7.30;99.90
14741;DHT22;7462;53.530;9.414;2023-05-19T03:15:32;7.30;99.90
14741;DHT22;7462;53.530;9.414;2023-05-19T03:18:00;7.30;99.90
14741;DHT22;7462;53.530;9.414;2023-05-19T03:20:28;7.30;99.90
14741;DHT22;7462;53.530;9.414;2023-05-19T03:22:57;7.30;99.90
14741;DHT22;7462;53.530;9.414;2023-05-19T03:25:26;7.30;99.90
14741;DHT22;7462;53.530;9.414;2023-05-19T03:27:55;7.20;99.90
14741;DHT22;7462;53.530;9.414;2023-05-19T03:30:23;7.20;99.90
14741;DHT22;7462;53.530;9.414;2023-05-19T03:33:02;7.20;99.90
14741;DHT22;7462;53.530;9.414;2023-05-19T03:35:33;7.20;99.90
14741;DHT22;7462;53.530;9.414;2023-05-19T03:38:02;7.30;99.90
14741;DHT22;7462;53.530;9.414;2023-05-19T03:40:31;7.30;99.90
14741;DHT22;7462;53.530;9.414;2023-05-19T03:43:04;7.30;99.90
14741;DHT22;7462;53.530;9.414;2023-05-19T03:45:40;7.30;99.90
14741;DHT22;7462;53.530;9.414;2023-05-19T03:48:31;7.30;99.90
14741;DHT22;7462;53.530;9.414;2023-05-19T03:51:22;7.30;99.90
14741;DHT22;7462;53.530;9.414;2023-05-19T03:53:54;7.30;99.90
14741;DHT22;7462;53.530;9.414;2023-05-19T03:56:23;7.30;99.90
14741;DHT22;7462;53.530;9.414;2023-05-19T03:58:53;7.30;99.90
14741;DHT22;7462;53.530;9.414;2023-05-19T04:01:21;7.30;99.90
14741;DHT22;7462;53.530;9.414;2023-05-19T04:03:49;7.30;99.90
14741;DHT22;7462;53.530;9.414;2023-05-19T04:06:17;7.30;99.90
14741;DHT22;7462;53.530;9.414;2023-05-19T04:08:45;7.30;99.90
14741;DHT22;7462;53.530;9.414;2023-05-19T04:11:13;7.30;99.90
14741;DHT22;7462;53.530;9.414;2023-05-19T04:13:43;7.40;99.90
14741;DHT22;7462;53.530;9.414;2023-05-19T04:16:11;7.40;99.90
14741;DHT22;7462;53.530;9.414;2023-05-19T04:18:40;7.40;99.90
14741;DHT22;7462;53.530;9.414;2023-05-19T04:21:11;7.40;99.90
14741;DHT22;7462;53.530;9.414;2023-05-19T04:23:39;7.40;99.90
14741;DHT22;7462;53.530;9.414;2023-05-19T04:26:07;7.40;99.90
14741;DHT22;7462;53.530;9.414;2023-05-19T04:28:35;7.50;99.90
14741;DHT22;7462;53.530;9.414;2023-05-19T04:31:07;7.50;99.90
14741;DHT22;7462;53.530;9.414;2023-05-19T04:33:37;7.50;99.90
14741;DHT22;7462;53.530;9.414;2023-05-19T04:36:06;7.60;99.90
14741;DHT22;7462;53.530;9.414;2023-05-19T04:38:39;7.60;99.90
14741;DHT22;7462;53.530;9.414;2023-05-19T04:41:09;7.60;99.90
14741;DHT22;7462;53.530;9.414;2023-05-19T04:43:39;7.70;99.90
14741;DHT22;7462;53.530;9.414;2023-05-19T04:46:12;7.70;99.90
14741;DHT22;7462;53.530;9.414;2023-05-19T04:48:43;7.80;99.90
14741;DHT22;7462;53.530;9.414;2023-05-19T04:51:11;7.80;99.90
14741;DHT22;7462;53.530;9.414;2023-05-19T04:53:40;7.90;99.90
14741;DHT22;7462;53.530;9.414;2023-05-19T04:56:10;7.90;99.90
14741;DHT22;7462;53.530;9.414;2023-05-19T04:58:41;7.90;99.90
14741;DHT22;7462;53.530;9.414;2023-05-19T05:01:11;8.00;99.90
14741;DHT22;7462;53.530;9.414;2023-05-19T05:03:42;8.10;99.90
14741;DHT22;7462;53.530;9.414;2023-05-19T05:06:10;8.20;99.90
14741;DHT22;7462;53.530;9.414;2023-05-19T05:08:38;8.20;99.90
14741;DHT22;7462;53.530;9.414;2023-05-19T05:11:08;8.20;99.90
14741;DHT22;7462;53.530;9.414;2023-05-19T05:13:36;8.30;99.90
14741;DHT22;7462;53.530;9.414;2023-05-19T05:16:05;8.30;99.90
14741;DHT22;7462;53.530;9.414;2023-05-19T05:18:36;8.40;99.90
14741;DHT22;7462;53.530;9.414;2023-05-19T05:21:06;8.50;99.90
14741;DHT22;7462;53.530;9.414;2023-05-19T05:23:35;8.40;99.90
14741;DHT22;7462;53.530;9.414;2023-05-19T05:26:17;8.50;99.90
14741;DHT22;7462;53.530;9.414;2023-05-19T05:28:47;8.50;99.90
14741;DHT22;7462;53.530;9.414;2023-05-19T05:31:16;8.60;99.90
14741;DHT22;7462;53.530;9.414;2023-05-19T05:33:45;8.70;99.90
14741;DHT22;7462;53.530;9.414;2023-05-19T05:36:15;8.70;99.90
14741;DHT22;7462;53.530;9.414;2023-05-19T05:38:43;8.80;99.90
14741;DHT22;7462;53.530;9.414;2023-05-19T05:41:11;8.90;99.90
14741;DHT22;7462;53.530;9.414;2023-05-19T05:43:40;9.00;99.90
14741;DHT22;7462;53.530;9.414;2023-05-19T05:46:08;9.20;99.90
14741;DHT22;7462;53.530;9.414;2023-05-19T05:48:36;9.40;99.90
14741;DHT22;7462;53.530;9.414;2023-05-19T05:51:07;9.60;99.90
14741;DHT22;7462;53.530;9.414;2023-05-19T05:53:40;9.60;99.90
14741;DHT22;7462;53.530;9.414;2023-05-19T05:56:12;9.70;99.90
14741;DHT22;7462;53.530;9.414;2023-05-19T05:58:47;9.60;99.90
14741;DHT22;7462;53.530;9.414;2023-05-19T06:01:15;9.60;99.90
14741;DHT22;7462;53.530;9.414;2023-05-19T06:03:43;9.60;99.90
14741;DHT22;7462;53.530;9.414;2023-05-19T06:06:18;9.50;99.90
14741;DHT22;7462;53.530;9.414;2023-05-19T06:08:46;9.50;99.90
14741;DHT22;7462;53.530;9.414;2023-05-19T06:11:14;9.60;99.90
14741;DHT22;7462;53.530;9.414;2023-05-19T06:13:42;9.70;99.90
14741;DHT22;7462;53.530;9.414;2023-05-19T06:16:18;9.70;99.90
14741;DHT22;7462;53.530;9.414;2023-05-19T06:18:47;9.80;99.90
14741;DHT22;7462;53.530;9.414;2023-05-19T06:21:15;9.90;99.90
14741;DHT22;7462;53.530;9.414;2023-05-19T06:23:44;10.10;99.90
14741;DHT22;7462;53.530;9.414;2023-05-19T06:26:12;10.40;99.90
14741;DHT22;7462;53.530;9.414;2023-05-19T06:28:41;10.60;99.90
14741;DHT22;7462;53.530;9.414;2023-05-19T06:31:09;10.80;99.90
14741;DHT22;7462;53.530;9.414;2023-05-19T06:33:48;10.90;99.90
14741;DHT22;7462;53.530;9.414;2023-05-19T06:36:17;10.90;99.90
14741;DHT22;7462;53.530;9.414;2023-05-19T06:38:47;10.90;99.90
14741;DHT22;7462;53.530;9.414;2023-05-19T06:41:15;11.00;99.90
14741;DHT22;7462;53.530;9.414;2023-05-19T06:43:46;11.30;99.90
14741;DHT22;7462;53.530;9.414;2023-05-19T06:46:14;11.80;99.90
14741;DHT22;7462;53.530;9.414;2023-05-19T06:48:43;12.10;99.90
14741;DHT22;7462;53.530;9.414;2023-05-19T06:51:11;12.30;99.90
14741;DHT22;7462;53.530;9.414;2023-05-19T06:53:42;12.70;99.90
14741;DHT22;7462;53.530;9.414;2023-05-19T06:56:12;13.10;99.90
14741;DHT22;7462;53.530;9.414;2023-05-19T06:58:40;13.70;99.90
14741;DHT22;7462;53.530;9.414;2023-05-19T07:01:10;13.80;99.90
14741;DHT22;7462;53.530;9.414;2023-05-19T07:03:43;14.30;99.90
14741;DHT22;7462;53.530;9.414;2023-05-19T07:06:13;14.70;99.90
14741;DHT22;7462;53.530;9.414;2023-05-19T07:08:41;14.90;99.90
14741;DHT22;7462;53.530;9.414;2023-05-19T07:11:12;15.00;99.90
14741;DHT22;7462;53.530;9.414;2023-05-19T07:13:42;15.20;99.90
14741;DHT22;7462;53.530;9.414;2023-05-19T07:16:10;15.30;99.90
14741;DHT22;7462;53.530;9.414;2023-05-19T07:18:40;15.40;99.90
14741;DHT22;7462;53.530;9.414;2023-05-19T07:21:10;15.70;99.90
14741;DHT22;7462;53.530;9.414;2023-05-19T07:23:38;15.70;99.90
14741;DHT22;7462;53.530;9.414;2023-05-19T07:26:06;16.00;99.90
14741;DHT22;7462;53.530;9.414;2023-05-19T07:28:36;16.30;99.90
14741;DHT22;7462;53.530;9.414;2023-05-19T07:31:07;16.60;99.90
14741;DHT22;7462;53.530;9.414;2023-05-19T07:33:35;16.80;99.90
14741;DHT22;7462;53.530;9.414;2023-05-19T07:36:03;16.90;99.90
14741;DHT22;7462;53.530;9.414;2023-05-19T07:38:31;17.10;99.90
14741;DHT22;7462;53.530;9.414;2023-05-19T07:41:00;17.20;99.90
14741;DHT22;7462;53.530;9.414;2023-05-19T07:43:28;17.40;99.90
14741;DHT22;7462;53.530;9.414;2023-05-19T07:45:58;17.40;99.90
14741;DHT22;7462;53.530;9.414;2023-05-19T07:48:27;17.80;99.90
14741;DHT22;7462;53.530;9.414;2023-05-19T07:50:55;17.90;99.90
14741;DHT22;7462;53.530;9.414;2023-05-19T07:53:23;18.10;99.90
14741;DHT22;7462;53.530;9.414;2023-05-19T07:55:51;18.50;99.90
14741;DHT22;7462;53.530;9.414;2023-05-19T07:58:21;18.60;99.90
14741;DHT22;7462;53.530;9.414;2023-05-19T08:00:49;18.20;99.90
14741;DHT22;7462;53.530;9.414;2023-05-19T08:03:19;18.00;99.90
14741;DHT22;7462;53.530;9.414;2023-05-19T08:05:49;17.90;99.90
14741;DHT22;7462;53.530;9.414;2023-05-19T08:08:17;18.00;99.90
14741;DHT22;7462;53.530;9.414;2023-05-19T08:10:46;18.10;99.90
14741;DHT22;7462;53.530;9.414;2023-05-19T08:13:14;18.50;99.90
14741;DHT22;7462;53.530;9.414;2023-05-19T08:15:42;19.00;99.90
14741;DHT22;7462;53.530;9.414;2023-05-19T08:18:10;19.00;99.90
14741;DHT22;7462;53.530;9.414;2023-05-19T08:20:39;18.90;99.90
14741;DHT22;7462;53.530;9.414;2023-05-19T08:23:07;18.60;99.90
14741;DHT22;7462;53.530;9.414;2023-05-19T08:25:35;19.00;99.90
14741;DHT22;7462;53.530;9.414;2023-05-19T08:28:03;19.40;99.90
14741;DHT22;7462;53.530;9.414;2023-05-19T08:30:32;20.00;99.90
14741;DHT22;7462;53.530;9.414;2023-05-19T08:33:00;20.00;99.90
14741;DHT22;7462;53.530;9.414;2023-05-19T08:35:29;20.20;99.90
14741;DHT22;7462;53.530;9.414;2023-05-19T08:37:58;19.90;99.90
14741;DHT22;7462;53.530;9.414;2023-05-19T08:40:27;20.40;99.90
14741;DHT22;7462;53.530;9.414;2023-05-19T08:42:57;20.20;99.90
14741;DHT22;7462;53.530;9.414;2023-05-19T08:45:25;19.90;99.90
14741;DHT22;7462;53.530;9.414;2023-05-19T08:47:54;19.70;99.90
14741;DHT22;7462;53.530;9.414;2023-05-19T08:50:28;20.10;99.90
14741;DHT22;7462;53.530;9.414;2023-05-19T08:53:06;20.40;99.90
14741;DHT22;7462;53.530;9.414;2023-05-19T08:55:52;21.00;99.90
14741;DHT22;7462;53.530;9.414;2023-05-19T08:58:25;20.60;99.90
14741;DHT22;7462;53.530;9.414;2023-05-19T09:00:55;20.00;99.90
14741;DHT22;7462;53.530;9.414;2023-05-19T09:03:24;19.70;99.90
14741;DHT22;7462;53.530;9.414;2023-05-19T09:05:55;19.50;99.90
14741;DHT22;7462;53.530;9.414;2023-05-19T09:08:24;19.50;99.90
14741;DHT22;7462;53.530;9.414;2023-05-19T09:10:52;19.80;99.90
14741;DHT22;7462;53.530;9.414;2023-05-19T09:13:20;20.10;99.90
14741;DHT22;7462;53.530;9.414;2023-05-19T09:15:49;20.10;99.90
14741;DHT22;7462;53.530;9.414;2023-05-19T09:18:18;20.50;99.90
14741;DHT22;7462;53.530;9.414;2023-05-19T09:20:46;20.90;99.90
14741;DHT22;7462;53.530;9.414;2023-05-19T09:23:15;20.90;99.90
14741;DHT22;7462;53.530;9.414;2023-05-19T09:25:48;20.90;99.90
14741;DHT22;7462;53.530;9.414;2023-05-19T09:28:23;21.00;99.90
14741;DHT22;7462;53.530;9.414;2023-05-19T09:31:01;20.90;99.90
14741;DHT22;7462;53.530;9.414;2023-05-19T09:33:29;20.90;99.90
14741;DHT22;7462;53.530;9.414;2023-05-19T09:35:59;20.90;99.90
14741;DHT22;7462;53.530;9.414;2023-05-19T09:38:27;20.70;99.90
14741;DHT22;7462;53.530;9.414;2023-05-19T09:40:58;20.50;99.90
14741;DHT22;7462;53.530;9.414;2023-05-19T09:43:26;20.50;99.90
14741;DHT22;7462;53.530;9.414;2023-05-19T09:45:58;20.70;99.90
14741;DHT22;7462;53.530;9.414;2023-05-19T09:48:27;21.30;99.90
14741;DHT22;7462;53.530;9.414;2023-05-19T09:50:56;21.80;99.90
14741;DHT22;7462;53.530;9.414;2023-05-19T09:53:25;22.10;99.90
14741;DHT22;7462;53.530;9.414;2023-05-19T09:55:54;21.80;99.90
14741;DHT22;7462;53.530;9.414;2023-05-19T09:58:25;21.70;99.90
14741;DHT22;7462;53.530;9.414;2023-05-19T10:00:54;21.70;99.90
14741;DHT22;7462;53.530;9.414;2023-05-19T10:03:22;21.80;99.90
14741;DHT22;7462;53.530;9.414;2023-05-19T10:05:54;21.70;99.90
14741;DHT22;7462;53.530;9.414;2023-05-19T10:08:23;21.80;99.90
14741;DHT22;7462;53.530;9.414;2023-05-19T10:10:53;22.00;99.90
14741;DHT22;7462;53.530;9.414;2023-05-19T10:13:21;22.10;99.90
14741;DHT22;7462;53.530;9.414;2023-05-19T10:15:52;22.00;99.90
14741;DHT22;7462;53.530;9.414;2023-05-19T10:18:25;22.10;99.90
14741;DHT22;7462;53.530;9.414;2023-05-19T10:20:55;22.20;99.90
14741;DHT22;7462;53.530;9.414;2023-05-19T10:23:24;22.90;99.90
14741;DHT22;7462;53.530;9.414;2023-05-19T10:25:54;23.00;99.90
14741;DHT22;7462;53.530;9.414;2023-05-19T10:28:28;22.80;99.90
14741;DHT22;7462;53.530;9.414;2023-05-19T10:31:00;22.90;99.90
14741;DHT22;7462;53.530;9.414;2023-05-19T10:33:37;22.80;99.90
14741;DHT22;7462;53.530;9.414;2023-05-19T10:36:21;23.00;99.90
14741;DHT22;7462;53.530;9.414;2023-05-19T10:38:57;23.00;99.90
14741;DHT22;7462;53.530;9.414;2023-05-19T10:41:30;22.90;99.90
14741;DHT22;7462;53.530;9.414;2023-05-19T10:44:08;23.20;99.90
14741;DHT22;7462;53.530;9.414;2023-05-19T10:46:38;22.60;99.90
14741;DHT22;7462;53.530;9.414;2023-05-19T10:49:07;21.60;99.90
14741;DHT22;7462;53.530;9.414;2023-05-19T10:51:35;21.40;99.90
14741;DHT22;7462;53.530;9.414;2023-05-19T10:54:07;21.00;99.90
14741;DHT22;7462;53.530;9.414;2023-05-19T10:56:38;21.40;99.90
14741;DHT22;7462;53.530;9.414;2023-05-19T10:59:31;22.40;99.90
14741;DHT22;7462;53.530;9.414;2023-05-19T11:02:04;22.30;99.90
14741;DHT22;7462;53.530;9.414;2023-05-19T11:04:45;21.90;99.90
14741;DHT22;7462;53.530;9.414;2023-05-19T11:07:18;22.20;99.90
14741;DHT22;7462;53.530;9.414;2023-05-19T11:09:49;22.50;99.90
14741;DHT22;7462;53.530;9.414;2023-05-19T11:12:22;22.70;99.90
14741;DHT22;7462;53.530;9.414;2023-05-19T11:14:51;22.00;99.90
14741;DHT22;7462;53.530;9.414;2023-05-19T11:17:23;21.30;99.90
14741;DHT22;7462;53.530;9.414;2023-05-19T11:19:54;20.90;99.90
14741;DHT22;7462;53.530;9.414;2023-05-19T11:22:23;20.60;99.90
14741;DHT22;7462;53.530;9.414;2023-05-19T11:24:53;20.70;99.90
14741;DHT22;7462;53.530;9.414;2023-05-19T11:27:24;21.40;99.90
14741;DHT22;7462;53.530;9.414;2023-05-19T11:29:54;22.20;99.90
14741;DHT22;7462;53.530;9.414;2023-05-19T11:32:27;22.60;99.90
14741;DHT22;7462;53.530;9.414;2023-05-19T11:34:56;23.10;99.90
14741;DHT22;7462;53.530;9.414;2023-05-19T11:37:25;23.00;99.90
14741;DHT22;7462;53.530;9.414;2023-05-19T11:39:54;23.00;99.90
14741;DHT22;7462;53.530;9.414;2023-05-19T11:42:22;22.80;99.90
14741;DHT22;7462;53.530;9.414;2023-05-19T11:44:54;22.60;99.90
14741;DHT22;7462;53.530;9.414;2023-05-19T11:47:22;22.50;99.90
14741;DHT22;7462;53.530;9.414;2023-05-19T11:49:53;21.90;99.90
14741;DHT22;7462;53.530;9.414;2023-05-19T11:52:22;21.00;99.90
14741;DHT22;7462;53.530;9.414;2023-05-19T11:54:50;20.50;99.90
14741;DHT22;7462;53.530;9.414;2023-05-19T11:57:19;20.30;99.90
14741;DHT22;7462;53.530;9.414;2023-05-19T11:59:47;20.00;99.90
14741;DHT22;7462;53.530;9.414;2023-05-19T12:02:19;20.10;99.90
14741;DHT22;7462;53.530;9.414;2023-05-19T12:04:48;20.60;99.90
14741;DHT22;7462;53.530;9.414;2023-05-19T12:07:19;20.70;99.90
14741;DHT22;7462;53.530;9.414;2023-05-19T12:09:49;20.80;99.90
14741;DHT22;7462;53.530;9.414;2023-05-19T12:12:18;20.40;99.90
14741;DHT22;7462;53.530;9.414;2023-05-19T12:14:48;20.20;99.90
14741;DHT22;7462;53.530;9.414;2023-05-19T12:17:18;20.20;99.90
14741;DHT22;7462;53.530;9.414;2023-05-19T12:19:47;20.40;99.90
14741;DHT22;7462;53.530;9.414;2023-05-19T12:22:17;20.70;99.90
14741;DHT22;7462;53.530;9.414;2023-05-19T12:24:46;20.40;99.90
14741;DHT22;7462;53.530;9.414;2023-05-19T12:27:17;20.10;99.90
14741;DHT22;7462;53.530;9.414;2023-05-19T12:29:48;19.80;99.90
14741;DHT22;7462;53.530;9.414;2023-05-19T12:32:17;20.10;99.90
14741;DHT22;7462;53.530;9.414;2023-05-19T12:34:45;20.40;99.90
14741;DHT22;7462;53.530;9.414;2023-05-19T12:37:13;20.50;99.90
14741;DHT22;7462;53.530;9.414;2023-05-19T12:39:43;20.40;99.90
14741;DHT22;7462;53.530;9.414;2023-05-19T12:42:11;20.30;99.90
14741;DHT22;7462;53.530;9.414;2023-05-19T12:44:43;20.30;99.90
14741;DHT22;7462;53.530;9.414;2023-05-19T12:47:14;20.30;99.90
14741;DHT22;7462;53.530;9.414;2023-05-19T12:49:54;20.60;99.90
14741;DHT22;7462;53.530;9.414;2023-05-19T12:52:23;20.70;99.90
14741;DHT22;7462;53.530;9.414;2023-05-19T12:54:58;20.50;99.90
14741;DHT22;7462;53.530;9.414;2023-05-19T12:57:27;20.40;99.90
14741;DHT22;7462;53.530;9.414;2023-05-19T13:00:01;20.40;99.90
14741;DHT22;7462;53.530;9.414;2023-05-19T13:02:33;20.60;99.90
14741;DHT22;7462;53.530;9.414;2023-05-19T13:05:02;20.70;99.90
14741;DHT22;7462;53.530;9.414;2023-05-19T13:07:30;20.70;99.90
14741;DHT22;7462;53.530;9.414;2023-05-19T13:09:59;20.50;99.90
14741;DHT22;7462;53.530;9.414;2023-05-19T13:12:27;20.30;99.90
14741;DHT22;7462;53.530;9.414;2023-05-19T13:14:55;20.30;99.90
14741;DHT22;7462;53.530;9.414;2023-05-19T13:17:25;20.00;99.90
14741;DHT22;7462;53.530;9.414;2023-05-19T13:19:53;20.00;99.90
14741;DHT22;7462;53.530;9.414;2023-05-19T13:22:22;19.90;99.90
14741;DHT22;7462;53.530;9.414;2023-05-19T13:24:50;19.90;99.90
14741;DHT22;7462;53.530;9.414;2023-05-19T13:27:20;19.90;99.90
14741;DHT22;7462;53.530;9.414;2023-05-19T13:29:50;19.90;99.90
14741;DHT22;7462;53.530;9.414;2023-05-19T13:32:18;19.80;99.90
14741;DHT22;7462;53.530;9.414;2023-05-19T13:34:46;19.90;99.90
14741;DHT22;7462;53.530;9.414;2023-05-19T13:37:14;20.00;99.90
14741;DHT22;7462;53.530;9.414;2023-05-19T13:39:42;20.10;99.90
14741;DHT22;7462;53.530;9.414;2023-05-19T13:42:11;20.10;99.90
14741;DHT22;7462;53.530;9.414;2023-05-19T13:44:40;19.90;99.90
14741;DHT22;7462;53.530;9.414;2023-05-19T13:47:08;19.70;99.90
14741;DHT22;7462;53.530;9.414;2023-05-19T13:49:36;19.40;99.90
14741;DHT22;7462;53.530;9.414;2023-05-19T13:52:05;19.30;99.90
14741;DHT22;7462;53.530;9.414;2023-05-19T13:54:33;19.30;99.90
14741;DHT22;7462;53.530;9.414;2023-05-19T13:57:01;19.30;99.90
14741;DHT22;7462;53.530;9.414;2023-05-19T13:59:29;19.30;99.90
14741;DHT22;7462;53.530;9.414;2023-05-19T14:01:59;19.30;99.90
14741;DHT22;7462;53.530;9.414;2023-05-19T14:04:28;19.30;99.90
14741;DHT22;7462;53.530;9.414;2023-05-19T14:06:56;19.50;99.90
14741;DHT22;7462;53.530;9.414;2023-05-19T14:09:24;19.60;99.90
14741;DHT22;7462;53.530;9.414;2023-05-19T14:11:55;19.60;99.90
14741;DHT22;7462;53.530;9.414;2023-05-19T14:14:23;19.60;99.90
14741;DHT22;7462;53.530;9.414;2023-05-19T14:16:51;19.60;99.90
14741;DHT22;7462;53.530;9.414;2023-05-19T14:19:20;19.60;99.90
14741;DHT22;7462;53.530;9.414;2023-05-19T14:21:49;19.50;99.90
14741;DHT22;7462;53.530;9.414;2023-05-19T14:24:17;19.60;99.90
14741;DHT22;7462;53.530;9.414;2023-05-19T14:26:45;19.50;99.90
14741;DHT22;7462;53.530;9.414;2023-05-19T14:29:14;19.40;99.90
14741;DHT22;7462;53.530;9.414;2023-05-19T14:31:42;19.30;99.90
14741;DHT22;7462;53.530;9.414;2023-05-19T14:34:10;19.30;99.90
14741;DHT22;7462;53.530;9.414;2023-05-19T14:36:39;19.40;99.90
14741;DHT22;7462;53.530;9.414;2023-05-19T14:39:07;19.30;99.90
14741;DHT22;7462;53.530;9.414;2023-05-19T14:41:35;19.50;99.90
14741;DHT22;7462;53.530;9.414;2023-05-19T14:44:04;19.60;99.90
14741;DHT22;7462;53.530;9.414;2023-05-19T14:46:32;19.60;99.90
14741;DHT22;7462;53.530;9.414;2023-05-19T14:49:00;19.30;99.90
14741;DHT22;7462;53.530;9.414;2023-05-19T14:51:28;19.20;99.90
14741;DHT22;7462;53.530;9.414;2023-05-19T14:53:58;19.10;99.90
14741;DHT22;7462;53.530;9.414;2023-05-19T14:56:27;18.90;99.90
14741;DHT22;7462;53.530;9.414;2023-05-19T14:58:55;18.80;99.90
14741;DHT22;7462;53.530;9.414;2023-05-19T15:01:24;18.80;99.90
14741;DHT22;7462;53.530;9.414;2023-05-19T15:03:52;18.70;99.90
14741;DHT22;7462;53.530;9.414;2023-05-19T15:06:20;18.90;99.90
14741;DHT22;7462;53.530;9.414;2023-05-19T15:08:49;19.00;99.90
14741;DHT22;7462;53.530;9.414;2023-05-19T15:11:18;19.10;99.90
14741;DHT22;7462;53.530;9.414;2023-05-19T15:13:46;19.20;99.90
14741;DHT22;7462;53.530;9.414;2023-05-19T15:16:14;19.10;99.90
14741;DHT22;7462;53.530;9.414;2023-05-19T15:18:44;19.20;99.90
14741;DHT22;7462;53.530;9.414;2023-05-19T15:21:12;19.10;99.90
14741;DHT22;7462;53.530;9.414;2023-05-19T15:23:40;19.10;99.90
14741;DHT22;7462;53.530;9.414;2023-05-19T15:26:08;19.10;99.90
14741;DHT22;7462;53.530;9.414;2023-05-19T15:28:37;19.00;99.90
14741;DHT22;7462;53.530;9.414;2023-05-19T15:31:06;18.90;99.90
14741;DHT22;7462;53.530;9.414;2023-05-19T15:33:34;18.80;99.90
14741;DHT22;7462;53.530;9.414;2023-05-19T15:36:02;18.80;99.90
14741;DHT22;7462;53.530;9.414;2023-05-19T15:38:34;18.80;99.90
14741;DHT22;7462;53.530;9.414;2023-05-19T15:41:05;18.90;99.90
14741;DHT22;7462;53.530;9.414;2023-05-19T15:43:34;19.00;99.90
14741;DHT22;7462;53.530;9.414;2023-05-19T15:46:04;19.10;99.90
14741;DHT22;7462;53.530;9.414;2023-05-19T15:48:32;19.20;99.90
14741;DHT22;7462;53.530;9.414;2023-05-19T15:51:00;19.00;99.90
14741;DHT22;7462;53.530;9.414;2023-05-19T15:53:29;18.90;99.90
14741;DHT22;7462;53.530;9.414;2023-05-19T15:55:57;18.70;99.90
14741;DHT22;7462;53.530;9.414;2023-05-19T15:58:25;18.50;99.90
14741;DHT22;7462;53.530;9.414;2023-05-19T16:00:53;18.40;99.90
14741;DHT22;7462;53.530;9.414;2023-05-19T16:03:22;18.30;99.90
14741;DHT22;7462;53.530;9.414;2023-05-19T16:05:51;18.30;99.90
14741;DHT22;7462;53.530;9.414;2023-05-19T16:08:19;18.40;99.90
14741;DHT22;7462;53.530;9.414;2023-05-19T16:10:47;18.40;99.90